Nearby METAR Reports

 

KICL - Clarinda, Iowa, USA
Distance from station: N 49mi, 79km
Updated: Sat, 25-Jan-2020 5:55pm CST
Overcast
Overcast
 Wind from S
Wind: S 7 mph , 11 km/h
Temperature: 27°F , -3°C
Wind Chill: 19°F , -7°C
Dew Point: 27°F , -3°C
Humidity: 100%
Barometer: 30.03 inHg , 1016.9 hPa
Clouds: Overcast
Visibility: 8 miles , 13 km
Cloud details: Overcast 600 ft
2020/01/25 23:55 KICL 252355Z AUTO 18006KT 8SM OVC006 M03/M03 A3003 RMK AO2
KDSM - Des Moines, Iowa, USA
Distance from station: NNE 122mi, 196km
Updated: Sat, 25-Jan-2020 5:54pm CST
Few Clouds
Few Clouds
 Wind from calm
Wind: Calm
Temperature: 27°F , -3°C
Dew Point: 19°F , -7°C
Humidity: 74%
Barometer: 30.00 inHg , 1015.9 hPa
Clouds: Few Clouds
Visibility: 10 miles , 16 km
Cloud details: Few Clouds 2200 ft
2020/01/25 23:54 KDSM 252354Z 00000KT 10SM FEW022 M03/M07 A3000 RMK AO2 SLP171 4/009 T10331072 10000 21039 50001
KFNB - Falls City, Nebraska, USA
Distance from station: W 50mi, 80km
Updated: Sat, 25-Jan-2020 5:53pm CST
Mist, Overcast
Mist, Overcast
 Wind from SE
Wind: SE 3 mph , 6 km/h
Temperature: 27°F , -3°C
Dew Point: 25°F , -4°C
Humidity: 93%
Barometer: 30.01 inHg , 1016.3 hPa
Summary: Mist
Clouds: Overcast
Visibility: 6 miles , 10 km
Cloud details: Overcast 500 ft
2020/01/25 23:53 KFNB 252353Z AUTO 13003KT 6SM BR OVC005 M03/M04 A3001 RMK AO2 SLP173 T10331044 11028 21033 58008
 
KMCI - Kansas City, Missouri, USA
Distance from station: S 65mi, 104km
Updated: Sat, 25-Jan-2020 5:53pm CST
Mostly cloudy
Mostly cloudy
 Wind from S
Wind: S 3 mph , 6 km/h
Temperature: 30°F , -1°C
Dew Point: 27°F , -3°C
Humidity: 86%
Barometer: 30.02 inHg , 1016.6 hPa
Clouds: Mostly cloudy
Visibility: 8 miles , 13 km
Cloud details: Mostly cloudy 10000 ft
2020/01/25 23:53 KMCI 252353Z 18003KT 8SM BKN100 M01/M03 A3002 RMK AO2 SLP174 4/002 T10061028 11006 21017 56007
KOMA - Omaha, Nebraska, USA
Distance from station: NNW 105mi, 169km
Updated: Sat, 25-Jan-2020 5:52pm CST
Overcast
Overcast
 Wind from SSW
Wind: SSW 8 mph , 13 km/h
Temperature: 30°F , -1°C
Wind Chill: 22°F , -6°C
Dew Point: 27°F , -3°C
Humidity: 86%
Barometer: 30.00 inHg , 1015.9 hPa
Clouds: Overcast
Visibility: 8 miles , 13 km
Cloud details: Overcast 1000 ft
2020/01/25 23:52 KOMA 252352Z 21007KT 8SM OVC010 M01/M03 A3000 RMK AO2 SLP171 4/003 T10111033 10000 21017 55002
KRDK - Red Oak, Iowa, USA
Distance from station: N 70mi, 112km
Updated: Sat, 25-Jan-2020 5:55pm CST
Mist, Overcast
Mist, Overcast
 Wind from S
Wind: S 7 mph , 11 km/h
Temperature: 28°F , -2°C
Wind Chill: 21°F , -6°C
Dew Point: 28°F , -2°C
Humidity: 100%
Barometer: 30.00 inHg , 1015.9 hPa
Summary: Mist
Clouds: Overcast
Visibility: 6 miles , 10 km
Cloud details: Overcast 700 ft
2020/01/25 23:55 KRDK 252355Z AUTO 18006KT 6SM BR OVC007 M02/M02 A3000 RMK AO2
 
KSTJ - Saint Joseph, Missouri, USA
Distance from station: SW 23mi, 37km
Updated: Sat, 25-Jan-2020 6:04pm CST
Overcast
Overcast
 Wind from calm
Wind: Calm
Temperature: 30°F , -1°C
Dew Point: 25°F , -4°C
Humidity: 80%
Barometer: 30.03 inHg , 1016.9 hPa
Clouds: Overcast
Visibility: 8 miles , 13 km
Cloud details: Partly cloudy 1100 ft
Overcast 10000 ft
2020/01/26 00:04 KSTJ 260004Z AUTO 00000KT 8SM SCT011 OVC100 M01/M04 A3003 RMK AO2 T10111039
KTOP - Topeka, Kansas, USA
Distance from station: SW 85mi, 137km
Updated: Sat, 25-Jan-2020 5:53pm CST
Clear
Clear
 Wind from ESE
Wind: ESE 6 mph , 9 km/h
Temperature: 32°F , 0°C
Wind Chill: 26°F , -3°C
Dew Point: 27°F , -3°C
Humidity: 80%
Barometer: 30.03 inHg , 1016.9 hPa
Clouds: Clear
Visibility: 10 miles , 16 km
2020/01/25 23:53 KTOP 252353Z 12005KT 10SM CLR 00/M03 A3003 RMK AO2 SLP176 T00001028 10017 21011 55003
KICT - Wichita, Kansas, USA
Distance from station: SW 215mi, 346km
Updated: Sat, 25-Jan-2020 5:53pm CST
Mostly cloudy
Mostly cloudy
 Wind from calm
Wind: Calm
Temperature: 46°F , 8°C
Dew Point: 34°F , 1°C
Humidity: 62%
Barometer: 29.96 inHg , 1014.6 hPa
Clouds: Mostly cloudy
Visibility: 10 miles , 16 km
Cloud details: Partly cloudy 11000 ft
Mostly cloudy 15000 ft
2020/01/25 23:53 KICT 252353Z 00000KT 10SM SCT110 BKN150 08/01 A2996 RMK AO2 SLP154 T00780011 10094 20050 53001